sensor_id;sensor_type;location;lat;lon;timestamp;temperature;humidity
13808;DHT22;40769;51.512;5.494;2023-06-04T00:02:24;15.40;74.80
13808;DHT22;40769;51.512;5.494;2023-06-04T00:04:50;15.40;75.30
13808;DHT22;40769;51.512;5.494;2023-06-04T00:07:16;15.30;75.30
13808;DHT22;40769;51.512;5.494;2023-06-04T00:09:42;15.30;75.70
13808;DHT22;40769;51.512;5.494;2023-06-04T00:12:09;15.30;76.30
13808;DHT22;40769;51.512;5.494;2023-06-04T00:14:35;15.30;77.00
13808;DHT22;40769;51.512;5.494;2023-06-04T00:17:00;15.30;77.30
13808;DHT22;40769;51.512;5.494;2023-06-04T00:19:26;15.30;78.50
13808;DHT22;40769;51.512;5.494;2023-06-04T00:21:52;15.20;78.90
13808;DHT22;40769;51.512;5.494;2023-06-04T00:24:17;15.20;79.20
13808;DHT22;40769;51.512;5.494;2023-06-04T00:26:43;15.20;79.80
13808;DHT22;40769;51.512;5.494;2023-06-04T00:29:09;15.10;80.30
13808;DHT22;40769;51.512;5.494;2023-06-04T00:31:35;15.20;81.10
13808;DHT22;40769;51.512;5.494;2023-06-04T00:34:01;15.10;81.90
13808;DHT22;40769;51.512;5.494;2023-06-04T00:36:26;15.10;82.70
13808;DHT22;40769;51.512;5.494;2023-06-04T00:38:52;15.10;83.40
13808;DHT22;40769;51.512;5.494;2023-06-04T00:41:18;15.10;84.60
13808;DHT22;40769;51.512;5.494;2023-06-04T00:43:43;15.10;85.60
13808;DHT22;40769;51.512;5.494;2023-06-04T00:46:11;15.00;86.50
13808;DHT22;40769;51.512;5.494;2023-06-04T00:48:43;15.00;88.20
13808;DHT22;40769;51.512;5.494;2023-06-04T00:51:10;15.00;90.00
13808;DHT22;40769;51.512;5.494;2023-06-04T00:53:36;15.00;90.50
13808;DHT22;40769;51.512;5.494;2023-06-04T00:56:01;14.20;90.80
13808;DHT22;40769;51.512;5.494;2023-06-04T00:58:31;14.90;91.70
13808;DHT22;40769;51.512;5.494;2023-06-04T01:00:59;14.90;92.40
13808;DHT22;40769;51.512;5.494;2023-06-04T01:03:29;14.80;93.30
13808;DHT22;40769;51.512;5.494;2023-06-04T01:06:04;14.80;93.70
13808;DHT22;40769;51.512;5.494;2023-06-04T01:08:31;14.50;95.00
13808;DHT22;40769;51.512;5.494;2023-06-04T01:10:58;14.70;95.40
13808;DHT22;40769;51.512;5.494;2023-06-04T01:13:24;14.60;96.20
13808;DHT22;40769;51.512;5.494;2023-06-04T01:15:50;14.60;97.30
13808;DHT22;40769;51.512;5.494;2023-06-04T01:18:23;14.50;98.30
13808;DHT22;40769;51.512;5.494;2023-06-04T01:20:59;14.50;99.60
13808;DHT22;40769;51.512;5.494;2023-06-04T01:23:46;14.50;99.90
13808;DHT22;40769;51.512;5.494;2023-06-04T01:26:13;14.40;99.90
13808;DHT22;40769;51.512;5.494;2023-06-04T01:28:39;14.40;99.90
13808;DHT22;40769;51.512;5.494;2023-06-04T01:31:06;14.40;99.90
13808;DHT22;40769;51.512;5.494;2023-06-04T01:33:34;14.40;99.90
13808;DHT22;40769;51.512;5.494;2023-06-04T01:36:00;14.40;99.90
13808;DHT22;40769;51.512;5.494;2023-06-04T01:38:27;14.40;99.90
13808;DHT22;40769;51.512;5.494;2023-06-04T01:40:52;14.40;99.90
13808;DHT22;40769;51.512;5.494;2023-06-04T01:43:22;14.40;99.90
13808;DHT22;40769;51.512;5.494;2023-06-04T01:45:47;14.30;99.90
13808;DHT22;40769;51.512;5.494;2023-06-04T01:48:13;14.30;99.90
13808;DHT22;40769;51.512;5.494;2023-06-04T01:50:39;14.30;99.90
13808;DHT22;40769;51.512;5.494;2023-06-04T01:53:05;14.40;99.90
13808;DHT22;40769;51.512;5.494;2023-06-04T01:55:31;14.40;99.90
13808;DHT22;40769;51.512;5.494;2023-06-04T01:57:59;14.40;99.90
13808;DHT22;40769;51.512;5.494;2023-06-04T02:00:26;14.30;99.90
13808;DHT22;40769;51.512;5.494;2023-06-04T02:02:51;14.40;99.90
13808;DHT22;40769;51.512;5.494;2023-06-04T02:05:18;14.30;99.90
13808;DHT22;40769;51.512;5.494;2023-06-04T02:07:45;14.10;99.90
13808;DHT22;40769;51.512;5.494;2023-06-04T02:10:12;14.30;99.90
13808;DHT22;40769;51.512;5.494;2023-06-04T02:12:40;14.30;99.90
13808;DHT22;40769;51.512;5.494;2023-06-04T02:15:06;14.20;99.90
13808;DHT22;40769;51.512;5.494;2023-06-04T02:17:32;14.20;99.90
13808;DHT22;40769;51.512;5.494;2023-06-04T02:19:59;14.10;99.90
13808;DHT22;40769;51.512;5.494;2023-06-04T02:22:25;14.20;99.90
13808;DHT22;40769;51.512;5.494;2023-06-04T02:24:51;14.10;99.90
13808;DHT22;40769;51.512;5.494;2023-06-04T02:27:17;14.00;99.90
13808;DHT22;40769;51.512;5.494;2023-06-04T02:29:43;14.00;99.90
13808;DHT22;40769;51.512;5.494;2023-06-04T02:32:09;14.00;99.90
13808;DHT22;40769;51.512;5.494;2023-06-04T02:34:35;14.00;99.90
13808;DHT22;40769;51.512;5.494;2023-06-04T02:37:01;13.90;99.90
13808;DHT22;40769;51.512;5.494;2023-06-04T02:39:27;13.90;99.90
13808;DHT22;40769;51.512;5.494;2023-06-04T02:41:53;13.90;99.90
13808;DHT22;40769;51.512;5.494;2023-06-04T02:44:18;13.90;99.90
13808;DHT22;40769;51.512;5.494;2023-06-04T02:46:44;13.80;99.90
13808;DHT22;40769;51.512;5.494;2023-06-04T02:49:10;13.80;99.90
13808;DHT22;40769;51.512;5.494;2023-06-04T02:51:42;13.80;99.90
13808;DHT22;40769;51.512;5.494;2023-06-04T02:54:08;13.80;99.90
13808;DHT22;40769;51.512;5.494;2023-06-04T02:56:36;13.80;99.90
13808;DHT22;40769;51.512;5.494;2023-06-04T02:59:02;13.80;99.90
13808;DHT22;40769;51.512;5.494;2023-06-04T03:01:28;13.70;99.90
13808;DHT22;40769;51.512;5.494;2023-06-04T03:03:54;13.70;99.90
13808;DHT22;40769;51.512;5.494;2023-06-04T03:06:22;13.80;99.90
13808;DHT22;40769;51.512;5.494;2023-06-04T03:08:50;13.70;99.90
13808;DHT22;40769;51.512;5.494;2023-06-04T03:11:17;13.70;99.90
13808;DHT22;40769;51.512;5.494;2023-06-04T03:13:44;13.60;99.90
13808;DHT22;40769;51.512;5.494;2023-06-04T03:16:10;13.60;99.90
13808;DHT22;40769;51.512;5.494;2023-06-04T03:18:36;13.60;99.90
13808;DHT22;40769;51.512;5.494;2023-06-04T03:21:06;13.60;99.90
13808;DHT22;40769;51.512;5.494;2023-06-04T03:23:32;13.50;99.90
13808;DHT22;40769;51.512;5.494;2023-06-04T03:26:00;13.40;99.90
13808;DHT22;40769;51.512;5.494;2023-06-04T03:28:26;13.40;99.90
13808;DHT22;40769;51.512;5.494;2023-06-04T03:30:51;13.40;99.90
13808;DHT22;40769;51.512;5.494;2023-06-04T03:33:17;13.40;99.90
13808;DHT22;40769;51.512;5.494;2023-06-04T03:35:43;13.30;99.90
13808;DHT22;40769;51.512;5.494;2023-06-04T03:38:08;13.30;99.90
13808;DHT22;40769;51.512;5.494;2023-06-04T03:40:34;13.30;99.90
13808;DHT22;40769;51.512;5.494;2023-06-04T03:42:59;13.30;99.90
13808;DHT22;40769;51.512;5.494;2023-06-04T03:45:26;13.30;99.90
13808;DHT22;40769;51.512;5.494;2023-06-04T03:47:51;13.50;99.90
13808;DHT22;40769;51.512;5.494;2023-06-04T03:50:18;13.30;99.90
13808;DHT22;40769;51.512;5.494;2023-06-04T03:52:44;13.30;99.90
13808;DHT22;40769;51.512;5.494;2023-06-04T03:55:10;13.30;99.90
13808;DHT22;40769;51.512;5.494;2023-06-04T03:57:36;13.40;99.90
13808;DHT22;40769;51.512;5.494;2023-06-04T04:00:05;13.30;99.90
13808;DHT22;40769;51.512;5.494;2023-06-04T04:02:31;13.30;99.90
13808;DHT22;40769;51.512;5.494;2023-06-04T04:04:56;13.30;99.90
13808;DHT22;40769;51.512;5.494;2023-06-04T04:07:23;13.40;99.90
13808;DHT22;40769;51.512;5.494;2023-06-04T04:09:49;13.30;99.90
13808;DHT22;40769;51.512;5.494;2023-06-04T04:12:14;13.30;99.90
13808;DHT22;40769;51.512;5.494;2023-06-04T04:14:40;13.50;99.90
13808;DHT22;40769;51.512;5.494;2023-06-04T04:17:06;13.30;99.90
13808;DHT22;40769;51.512;5.494;2023-06-04T04:19:31;13.30;99.90
13808;DHT22;40769;51.512;5.494;2023-06-04T04:21:57;13.30;99.90
13808;DHT22;40769;51.512;5.494;2023-06-04T04:24:26;13.30;99.90
13808;DHT22;40769;51.512;5.494;2023-06-04T04:26:53;13.30;99.90
13808;DHT22;40769;51.512;5.494;2023-06-04T04:29:20;13.30;99.90
13808;DHT22;40769;51.512;5.494;2023-06-04T04:31:49;13.30;99.90
13808;DHT22;40769;51.512;5.494;2023-06-04T04:34:15;13.40;99.90
13808;DHT22;40769;51.512;5.494;2023-06-04T04:36:41;13.30;99.90
13808;DHT22;40769;51.512;5.494;2023-06-04T04:39:06;13.40;99.90
13808;DHT22;40769;51.512;5.494;2023-06-04T04:41:32;13.50;99.90
13808;DHT22;40769;51.512;5.494;2023-06-04T04:44:04;13.40;99.90
13808;DHT22;40769;51.512;5.494;2023-06-04T04:46:33;13.50;99.90
13808;DHT22;40769;51.512;5.494;2023-06-04T04:48:58;13.60;99.90
13808;DHT22;40769;51.512;5.494;2023-06-04T04:51:24;13.60;99.90
13808;DHT22;40769;51.512;5.494;2023-06-04T04:53:49;13.60;99.90
13808;DHT22;40769;51.512;5.494;2023-06-04T04:56:15;13.70;99.90
13808;DHT22;40769;51.512;5.494;2023-06-04T04:58:42;13.80;99.90
13808;DHT22;40769;51.512;5.494;2023-06-04T05:01:07;13.70;99.90
13808;DHT22;40769;51.512;5.494;2023-06-04T05:03:33;13.80;99.90
13808;DHT22;40769;51.512;5.494;2023-06-04T05:05:58;14.10;99.90
13808;DHT22;40769;51.512;5.494;2023-06-04T05:08:24;13.80;99.90
13808;DHT22;40769;51.512;5.494;2023-06-04T05:10:50;14.00;99.90
13808;DHT22;40769;51.512;5.494;2023-06-04T05:13:17;13.90;99.90
13808;DHT22;40769;51.512;5.494;2023-06-04T05:15:43;13.90;99.90
13808;DHT22;40769;51.512;5.494;2023-06-04T05:18:08;13.90;99.90
13808;DHT22;40769;51.512;5.494;2023-06-04T05:20:34;13.90;99.90
13808;DHT22;40769;51.512;5.494;2023-06-04T05:23:03;14.10;99.90
13808;DHT22;40769;51.512;5.494;2023-06-04T05:25:29;14.00;99.90
13808;DHT22;40769;51.512;5.494;2023-06-04T05:27:56;14.00;99.90
13808;DHT22;40769;51.512;5.494;2023-06-04T05:30:22;14.10;99.90
13808;DHT22;40769;51.512;5.494;2023-06-04T05:32:48;14.20;99.90
13808;DHT22;40769;51.512;5.494;2023-06-04T05:35:16;14.20;99.90
13808;DHT22;40769;51.512;5.494;2023-06-04T05:37:42;14.30;99.90
13808;DHT22;40769;51.512;5.494;2023-06-04T05:40:08;14.30;99.90
13808;DHT22;40769;51.512;5.494;2023-06-04T05:42:35;14.50;99.90
13808;DHT22;40769;51.512;5.494;2023-06-04T05:45:01;14.50;99.90
13808;DHT22;40769;51.512;5.494;2023-06-04T05:47:27;14.60;99.90
13808;DHT22;40769;51.512;5.494;2023-06-04T05:49:54;14.70;99.90
13808;DHT22;40769;51.512;5.494;2023-06-04T05:52:20;14.80;99.90
13808;DHT22;40769;51.512;5.494;2023-06-04T05:54:45;14.90;99.90
13808;DHT22;40769;51.512;5.494;2023-06-04T05:57:11;14.90;99.90
13808;DHT22;40769;51.512;5.494;2023-06-04T05:59:36;15.00;99.90
13808;DHT22;40769;51.512;5.494;2023-06-04T06:02:02;15.10;99.90
13808;DHT22;40769;51.512;5.494;2023-06-04T06:04:28;15.20;99.90
13808;DHT22;40769;51.512;5.494;2023-06-04T06:06:53;15.30;99.90
13808;DHT22;40769;51.512;5.494;2023-06-04T06:09:19;15.40;99.90
13808;DHT22;40769;51.512;5.494;2023-06-04T06:11:45;15.50;99.90
13808;DHT22;40769;51.512;5.494;2023-06-04T06:14:11;15.70;99.90
13808;DHT22;40769;51.512;5.494;2023-06-04T06:16:36;15.80;99.90
13808;DHT22;40769;51.512;5.494;2023-06-04T06:19:02;16.10;99.90
13808;DHT22;40769;51.512;5.494;2023-06-04T06:21:28;16.20;99.90
13808;DHT22;40769;51.512;5.494;2023-06-04T06:23:54;16.40;99.90
13808;DHT22;40769;51.512;5.494;2023-06-04T06:26:20;16.60;99.90
13808;DHT22;40769;51.512;5.494;2023-06-04T06:28:47;16.90;99.90
13808;DHT22;40769;51.512;5.494;2023-06-04T06:31:12;17.30;99.90
13808;DHT22;40769;51.512;5.494;2023-06-04T06:33:38;17.50;99.90
13808;DHT22;40769;51.512;5.494;2023-06-04T06:36:09;17.90;99.90
13808;DHT22;40769;51.512;5.494;2023-06-04T06:38:37;18.20;99.90
13808;DHT22;40769;51.512;5.494;2023-06-04T06:41:03;18.50;99.90
13808;DHT22;40769;51.512;5.494;2023-06-04T06:43:28;18.70;99.90
13808;DHT22;40769;51.512;5.494;2023-06-04T06:45:54;19.00;99.90
13808;DHT22;40769;51.512;5.494;2023-06-04T06:48:20;19.30;99.90
13808;DHT22;40769;51.512;5.494;2023-06-04T06:50:45;19.60;99.90
13808;DHT22;40769;51.512;5.494;2023-06-04T06:53:11;19.90;99.90
13808;DHT22;40769;51.512;5.494;2023-06-04T06:55:36;20.20;99.90
13808;DHT22;40769;51.512;5.494;2023-06-04T06:58:02;20.50;99.90
13808;DHT22;40769;51.512;5.494;2023-06-04T07:00:28;20.80;99.90
13808;DHT22;40769;51.512;5.494;2023-06-04T07:02:53;21.10;99.90
13808;DHT22;40769;51.512;5.494;2023-06-04T07:05:19;21.40;99.90
13808;DHT22;40769;51.512;5.494;2023-06-04T07:07:45;21.70;99.90
13808;DHT22;40769;51.512;5.494;2023-06-04T07:10:11;22.00;99.90
13808;DHT22;40769;51.512;5.494;2023-06-04T07:12:37;22.20;99.90
13808;DHT22;40769;51.512;5.494;2023-06-04T07:15:04;22.50;99.90
13808;DHT22;40769;51.512;5.494;2023-06-04T07:17:30;22.80;99.90
13808;DHT22;40769;51.512;5.494;2023-06-04T07:19:56;23.00;99.90
13808;DHT22;40769;51.512;5.494;2023-06-04T07:22:21;23.40;99.90
13808;DHT22;40769;51.512;5.494;2023-06-04T07:24:47;23.60;99.90
13808;DHT22;40769;51.512;5.494;2023-06-04T07:27:14;23.90;99.90
13808;DHT22;40769;51.512;5.494;2023-06-04T07:29:40;24.10;99.90
13808;DHT22;40769;51.512;5.494;2023-06-04T07:32:06;24.30;99.90
13808;DHT22;40769;51.512;5.494;2023-06-04T07:34:32;24.40;99.90
13808;DHT22;40769;51.512;5.494;2023-06-04T07:36:58;24.60;99.90
13808;DHT22;40769;51.512;5.494;2023-06-04T07:39:23;24.90;99.90
13808;DHT22;40769;51.512;5.494;2023-06-04T07:41:49;25.10;99.90
13808;DHT22;40769;51.512;5.494;2023-06-04T07:44:15;25.40;99.90
13808;DHT22;40769;51.512;5.494;2023-06-04T07:46:40;25.70;99.90
13808;DHT22;40769;51.512;5.494;2023-06-04T07:49:06;26.00;99.20
13808;DHT22;40769;51.512;5.494;2023-06-04T07:51:32;26.30;98.50
13808;DHT22;40769;51.512;5.494;2023-06-04T07:53:57;26.60;97.50
13808;DHT22;40769;51.512;5.494;2023-06-04T07:56:23;26.90;97.00
13808;DHT22;40769;51.512;5.494;2023-06-04T07:58:48;27.20;96.00
13808;DHT22;40769;51.512;5.494;2023-06-04T08:01:14;27.60;94.70
13808;DHT22;40769;51.512;5.494;2023-06-04T08:03:40;27.90;93.60
13808;DHT22;40769;51.512;5.494;2023-06-04T08:06:07;28.10;92.80
13808;DHT22;40769;51.512;5.494;2023-06-04T08:08:32;28.40;91.40
13808;DHT22;40769;51.512;5.494;2023-06-04T08:10:59;28.60;90.60
13808;DHT22;40769;51.512;5.494;2023-06-04T08:13:25;28.90;89.40
13808;DHT22;40769;51.512;5.494;2023-06-04T08:15:51;29.10;88.30
13808;DHT22;40769;51.512;5.494;2023-06-04T08:18:17;29.30;86.40
13808;DHT22;40769;51.512;5.494;2023-06-04T08:20:42;29.50;84.40
13808;DHT22;40769;51.512;5.494;2023-06-04T08:23:08;29.70;81.40
13808;DHT22;40769;51.512;5.494;2023-06-04T08:25:34;29.80;78.40
13808;DHT22;40769;51.512;5.494;2023-06-04T08:27:59;29.90;77.70
13808;DHT22;40769;51.512;5.494;2023-06-04T08:30:25;30.00;77.60
13808;DHT22;40769;51.512;5.494;2023-06-04T08:32:53;30.20;76.20
13808;DHT22;40769;51.512;5.494;2023-06-04T08:35:18;30.30;74.80
13808;DHT22;40769;51.512;5.494;2023-06-04T08:37:44;30.50;73.30
13808;DHT22;40769;51.512;5.494;2023-06-04T08:40:10;30.60;72.50
13808;DHT22;40769;51.512;5.494;2023-06-04T08:42:41;30.70;71.00
13808;DHT22;40769;51.512;5.494;2023-06-04T08:45:12;30.80;68.20
13808;DHT22;40769;51.512;5.494;2023-06-04T08:47:43;30.90;67.80
13808;DHT22;40769;51.512;5.494;2023-06-04T08:50:10;31.10;66.90
13808;DHT22;40769;51.512;5.494;2023-06-04T08:52:37;31.20;66.70
13808;DHT22;40769;51.512;5.494;2023-06-04T08:55:03;31.30;64.20
13808;DHT22;40769;51.512;5.494;2023-06-04T08:57:30;31.30;62.70
13808;DHT22;40769;51.512;5.494;2023-06-04T08:59:56;31.40;60.90
13808;DHT22;40769;51.512;5.494;2023-06-04T09:02:22;31.30;60.60
13808;DHT22;40769;51.512;5.494;2023-06-04T09:04:49;31.30;59.30
13808;DHT22;40769;51.512;5.494;2023-06-04T09:07:16;31.30;57.40
13808;DHT22;40769;51.512;5.494;2023-06-04T09:09:45;31.10;56.00
13808;DHT22;40769;51.512;5.494;2023-06-04T09:12:17;31.00;56.30
13808;DHT22;40769;51.512;5.494;2023-06-04T09:14:47;30.90;55.60
13808;DHT22;40769;51.512;5.494;2023-06-04T09:17:13;30.90;56.10
13808;DHT22;40769;51.512;5.494;2023-06-04T09:19:39;30.90;55.10
13808;DHT22;40769;51.512;5.494;2023-06-04T09:22:04;30.80;55.50
13808;DHT22;40769;51.512;5.494;2023-06-04T09:24:47;30.80;54.50
13808;DHT22;40769;51.512;5.494;2023-06-04T09:27:17;30.80;52.80
13808;DHT22;40769;51.512;5.494;2023-06-04T09:32:25;30.80;53.50
13808;DHT22;40769;51.512;5.494;2023-06-04T09:34:52;30.90;54.80
13808;DHT22;40769;51.512;5.494;2023-06-04T09:37:18;31.00;54.90
13808;DHT22;40769;51.512;5.494;2023-06-04T09:39:57;31.10;54.60
13808;DHT22;40769;51.512;5.494;2023-06-04T09:42:23;31.20;51.80
13808;DHT22;40769;51.512;5.494;2023-06-04T09:44:49;31.20;52.50
13808;DHT22;40769;51.512;5.494;2023-06-04T09:47:15;31.10;52.90
13808;DHT22;40769;51.512;5.494;2023-06-04T09:49:47;31.00;52.70
13808;DHT22;40769;51.512;5.494;2023-06-04T09:52:13;31.00;52.90
13808;DHT22;40769;51.512;5.494;2023-06-04T09:54:40;31.00;53.10
13808;DHT22;40769;51.512;5.494;2023-06-04T09:57:16;31.10;53.70
13808;DHT22;40769;51.512;5.494;2023-06-04T09:59:45;31.30;53.60
13808;DHT22;40769;51.512;5.494;2023-06-04T10:02:18;31.50;52.80
13808;DHT22;40769;51.512;5.494;2023-06-04T10:04:54;31.70;51.40
13808;DHT22;40769;51.512;5.494;2023-06-04T10:07:24;31.70;51.30
13808;DHT22;40769;51.512;5.494;2023-06-04T10:09:51;31.90;51.20
13808;DHT22;40769;51.512;5.494;2023-06-04T10:12:25;31.90;51.30
13808;DHT22;40769;51.512;5.494;2023-06-04T10:14:54;32.10;50.40
13808;DHT22;40769;51.512;5.494;2023-06-04T10:17:22;32.20;50.80
13808;DHT22;40769;51.512;5.494;2023-06-04T10:19:49;32.30;50.90
13808;DHT22;40769;51.512;5.494;2023-06-04T10:22:22;32.50;50.80
13808;DHT22;40769;51.512;5.494;2023-06-04T10:24:48;32.70;50.70
13808;DHT22;40769;51.512;5.494;2023-06-04T10:27:17;32.80;50.30
13808;DHT22;40769;51.512;5.494;2023-06-04T10:29:44;33.00;49.20
13808;DHT22;40769;51.512;5.494;2023-06-04T10:32:11;33.00;48.90
13808;DHT22;40769;51.512;5.494;2023-06-04T10:34:37;33.10;49.00
13808;DHT22;40769;51.512;5.494;2023-06-04T10:37:03;33.10;49.00
13808;DHT22;40769;51.512;5.494;2023-06-04T10:39:30;33.20;48.40
13808;DHT22;40769;51.512;5.494;2023-06-04T10:42:01;33.30;47.60
13808;DHT22;40769;51.512;5.494;2023-06-04T10:44:29;33.30;47.10
13808;DHT22;40769;51.512;5.494;2023-06-04T10:46:55;33.30;47.30
13808;DHT22;40769;51.512;5.494;2023-06-04T10:49:28;33.30;47.40
13808;DHT22;40769;51.512;5.494;2023-06-04T10:51:54;33.30;46.70
13808;DHT22;40769;51.512;5.494;2023-06-04T10:54:28;33.40;47.20
13808;DHT22;40769;51.512;5.494;2023-06-04T10:56:55;33.40;47.30
13808;DHT22;40769;51.512;5.494;2023-06-04T10:59:21;33.40;46.50
13808;DHT22;40769;51.512;5.494;2023-06-04T11:01:47;33.50;46.10
13808;DHT22;40769;51.512;5.494;2023-06-04T11:06:46;33.50;45.60
13808;DHT22;40769;51.512;5.494;2023-06-04T11:09:13;33.50;45.60
13808;DHT22;40769;51.512;5.494;2023-06-04T11:11:42;33.50;45.50
13808;DHT22;40769;51.512;5.494;2023-06-04T11:14:11;33.50;45.30
13808;DHT22;40769;51.512;5.494;2023-06-04T11:16:42;33.50;44.20
13808;DHT22;40769;51.512;5.494;2023-06-04T11:19:08;33.70;45.10
13808;DHT22;40769;51.512;5.494;2023-06-04T11:21:34;33.60;45.00
13808;DHT22;40769;51.512;5.494;2023-06-04T11:24:03;33.50;44.80
13808;DHT22;40769;51.512;5.494;2023-06-04T11:26:33;33.60;44.70
13808;DHT22;40769;51.512;5.494;2023-06-04T11:29:00;33.70;43.60
13808;DHT22;40769;51.512;5.494;2023-06-04T11:31:25;33.70;44.70
13808;DHT22;40769;51.512;5.494;2023-06-04T11:33:51;33.70;44.70
13808;DHT22;40769;51.512;5.494;2023-06-04T11:36:28;33.80;44.70
13808;DHT22;40769;51.512;5.494;2023-06-04T11:38:58;34.00;44.30
13808;DHT22;40769;51.512;5.494;2023-06-04T11:41:31;34.00;44.40
13808;DHT22;40769;51.512;5.494;2023-06-04T11:43:57;34.10;43.60
13808;DHT22;40769;51.512;5.494;2023-06-04T11:46:24;34.20;43.90
13808;DHT22;40769;51.512;5.494;2023-06-04T11:48:53;34.20;43.20
13808;DHT22;40769;51.512;5.494;2023-06-04T11:51:22;34.10;42.70
13808;DHT22;40769;51.512;5.494;2023-06-04T11:53:47;34.10;43.50
13808;DHT22;40769;51.512;5.494;2023-06-04T11:56:14;34.00;43.70
13808;DHT22;40769;51.512;5.494;2023-06-04T11:58:40;34.10;43.50
13808;DHT22;40769;51.512;5.494;2023-06-04T12:01:07;33.90;43.30
13808;DHT22;40769;51.512;5.494;2023-06-04T12:03:35;34.10;43.80
13808;DHT22;40769;51.512;5.494;2023-06-04T12:06:16;34.10;43.00
13808;DHT22;40769;51.512;5.494;2023-06-04T12:08:49;34.10;42.80
13808;DHT22;40769;51.512;5.494;2023-06-04T12:11:32;34.10;43.30
13808;DHT22;40769;51.512;5.494;2023-06-04T12:14:05;34.10;42.40
13808;DHT22;40769;51.512;5.494;2023-06-04T12:16:33;34.10;42.50
13808;DHT22;40769;51.512;5.494;2023-06-04T12:19:09;34.10;43.30
13808;DHT22;40769;51.512;5.494;2023-06-04T12:21:35;34.10;42.80
13808;DHT22;40769;51.512;5.494;2023-06-04T12:24:12;34.10;43.30
13808;DHT22;40769;51.512;5.494;2023-06-04T12:26:39;34.10;43.10
13808;DHT22;40769;51.512;5.494;2023-06-04T12:29:13;34.10;43.40
13808;DHT22;40769;51.512;5.494;2023-06-04T12:31:40;34.20;43.20
13808;DHT22;40769;51.512;5.494;2023-06-04T12:34:06;34.20;43.10
13808;DHT22;40769;51.512;5.494;2023-06-04T12:36:32;34.20;42.70
13808;DHT22;40769;51.512;5.494;2023-06-04T12:39:02;34.20;42.70
13808;DHT22;40769;51.512;5.494;2023-06-04T12:41:28;34.20;42.70
13808;DHT22;40769;51.512;5.494;2023-06-04T12:43:55;34.10;42.60
13808;DHT22;40769;51.512;5.494;2023-06-04T12:46:22;34.10;43.00
13808;DHT22;40769;51.512;5.494;2023-06-04T12:48:51;34.10;42.80
13808;DHT22;40769;51.512;5.494;2023-06-04T12:51:17;34.10;42.90
13808;DHT22;40769;51.512;5.494;2023-06-04T12:53:44;34.10;42.90
13808;DHT22;40769;51.512;5.494;2023-06-04T12:56:10;34.00;42.80
13808;DHT22;40769;51.512;5.494;2023-06-04T12:58:36;34.00;43.10
13808;DHT22;40769;51.512;5.494;2023-06-04T13:01:02;34.10;43.30
13808;DHT22;40769;51.512;5.494;2023-06-04T13:03:30;34.20;43.30
13808;DHT22;40769;51.512;5.494;2023-06-04T13:05:56;34.20;42.60
13808;DHT22;40769;51.512;5.494;2023-06-04T13:08:25;34.30;42.70
13808;DHT22;40769;51.512;5.494;2023-06-04T13:10:51;34.20;42.10
13808;DHT22;40769;51.512;5.494;2023-06-04T13:13:18;34.30;42.60
13808;DHT22;40769;51.512;5.494;2023-06-04T13:15:44;34.30;42.60
13808;DHT22;40769;51.512;5.494;2023-06-04T13:18:11;34.30;42.20
13808;DHT22;40769;51.512;5.494;2023-06-04T13:20:39;34.30;42.00
13808;DHT22;40769;51.512;5.494;2023-06-04T13:23:05;34.10;41.90
13808;DHT22;40769;51.512;5.494;2023-06-04T13:25:30;34.10;42.10
13808;DHT22;40769;51.512;5.494;2023-06-04T13:28:02;34.10;42.10
13808;DHT22;40769;51.512;5.494;2023-06-04T13:30:28;34.10;42.50
13808;DHT22;40769;51.512;5.494;2023-06-04T13:32:53;34.10;42.60
13808;DHT22;40769;51.512;5.494;2023-06-04T13:35:19;34.20;42.70
13808;DHT22;40769;51.512;5.494;2023-06-04T13:37:45;34.30;42.70
13808;DHT22;40769;51.512;5.494;2023-06-04T13:40:12;34.40;42.20
13808;DHT22;40769;51.512;5.494;2023-06-04T13:42:38;34.50;42.40
13808;DHT22;40769;51.512;5.494;2023-06-04T13:45:04;34.60;42.10
13808;DHT22;40769;51.512;5.494;2023-06-04T13:47:30;34.70;42.30
13808;DHT22;40769;51.512;5.494;2023-06-04T13:49:55;34.80;42.40
13808;DHT22;40769;51.512;5.494;2023-06-04T13:52:21;34.90;42.10
13808;DHT22;40769;51.512;5.494;2023-06-04T13:54:47;35.00;42.00
13808;DHT22;40769;51.512;5.494;2023-06-04T13:57:12;35.00;41.80
13808;DHT22;40769;51.512;5.494;2023-06-04T13:59:39;35.00;41.50
13808;DHT22;40769;51.512;5.494;2023-06-04T14:02:04;34.90;41.50
13808;DHT22;40769;51.512;5.494;2023-06-04T14:04:31;34.90;41.60
13808;DHT22;40769;51.512;5.494;2023-06-04T14:06:56;34.80;42.50
13808;DHT22;40769;51.512;5.494;2023-06-04T14:09:22;34.90;41.80
13808;DHT22;40769;51.512;5.494;2023-06-04T14:11:48;35.00;41.70
13808;DHT22;40769;51.512;5.494;2023-06-04T14:14:17;35.00;41.50
13808;DHT22;40769;51.512;5.494;2023-06-04T14:16:43;35.00;41.20
13808;DHT22;40769;51.512;5.494;2023-06-04T14:19:09;34.90;40.90
13808;DHT22;40769;51.512;5.494;2023-06-04T14:21:35;34.90;41.20
13808;DHT22;40769;51.512;5.494;2023-06-04T14:24:01;34.70;41.40
13808;DHT22;40769;51.512;5.494;2023-06-04T14:26:27;34.70;41.20
13808;DHT22;40769;51.512;5.494;2023-06-04T14:28:53;34.70;41.10
13808;DHT22;40769;51.512;5.494;2023-06-04T14:31:19;34.70;41.40
13808;DHT22;40769;51.512;5.494;2023-06-04T14:33:44;34.60;41.40
13808;DHT22;40769;51.512;5.494;2023-06-04T14:36:10;34.60;41.60
13808;DHT22;40769;51.512;5.494;2023-06-04T14:38:35;34.80;41.80
13808;DHT22;40769;51.512;5.494;2023-06-04T14:41:02;34.90;41.90
13808;DHT22;40769;51.512;5.494;2023-06-04T14:43:28;35.10;41.50
13808;DHT22;40769;51.512;5.494;2023-06-04T14:45:53;35.20;41.40
13808;DHT22;40769;51.512;5.494;2023-06-04T14:48:19;35.40;41.60
13808;DHT22;40769;51.512;5.494;2023-06-04T14:50:45;35.60;41.60
13808;DHT22;40769;51.512;5.494;2023-06-04T14:53:12;35.70;40.60
13808;DHT22;40769;51.512;5.494;2023-06-04T14:55:37;35.80;40.60
13808;DHT22;40769;51.512;5.494;2023-06-04T14:58:03;35.80;40.30
13808;DHT22;40769;51.512;5.494;2023-06-04T15:00:30;35.80;40.70
13808;DHT22;40769;51.512;5.494;2023-06-04T15:02:56;35.80;40.80
13808;DHT22;40769;51.512;5.494;2023-06-04T15:05:22;35.80;40.80
13808;DHT22;40769;51.512;5.494;2023-06-04T15:07:47;35.80;40.70
13808;DHT22;40769;51.512;5.494;2023-06-04T15:10:13;35.80;40.50
13808;DHT22;40769;51.512;5.494;2023-06-04T15:12:38;35.90;40.40
13808;DHT22;40769;51.512;5.494;2023-06-04T15:15:06;35.80;40.40
13808;DHT22;40769;51.512;5.494;2023-06-04T15:17:32;35.70;40.20
13808;DHT22;40769;51.512;5.494;2023-06-04T15:19:58;35.60;40.00
13808;DHT22;40769;51.512;5.494;2023-06-04T15:22:24;35.60;40.00
13808;DHT22;40769;51.512;5.494;2023-06-04T15:24:51;35.40;39.80
13808;DHT22;40769;51.512;5.494;2023-06-04T15:27:17;35.20;39.90
13808;DHT22;40769;51.512;5.494;2023-06-04T15:29:43;35.10;40.10
13808;DHT22;40769;51.512;5.494;2023-06-04T15:32:09;34.90;40.10
13808;DHT22;40769;51.512;5.494;2023-06-04T15:34:34;34.90;40.10